sensor_id;sensor_type;location;lat;lon;timestamp;P1;durP1;ratioP1;P2;durP2;ratioP2
22064;SDS011;11197;53.110;8.468;2024-01-30T00:01:55;19.42;;;13.23;;
22064;SDS011;11197;53.110;8.468;2024-01-30T00:04:21;18.75;;;13.05;;
22064;SDS011;11197;53.110;8.468;2024-01-30T00:06:47;19.00;;;13.60;;
22064;SDS011;11197;53.110;8.468;2024-01-30T00:09:13;19.27;;;13.38;;
22064;SDS011;11197;53.110;8.468;2024-01-30T00:11:39;18.80;;;13.40;;
22064;SDS011;11197;53.110;8.468;2024-01-30T00:14:05;19.33;;;12.77;;
22064;SDS011;11197;53.110;8.468;2024-01-30T00:16:31;19.17;;;13.63;;
22064;SDS011;11197;53.110;8.468;2024-01-30T00:18:57;20.60;;;13.70;;
22064;SDS011;11197;53.110;8.468;2024-01-30T00:21:23;20.05;;;12.75;;
22064;SDS011;11197;53.110;8.468;2024-01-30T00:23:49;18.63;;;13.25;;
22064;SDS011;11197;53.110;8.468;2024-01-30T00:26:15;21.08;;;13.65;;
22064;SDS011;11197;53.110;8.468;2024-01-30T00:28:41;19.52;;;13.93;;
22064;SDS011;11197;53.110;8.468;2024-01-30T00:31:07;18.42;;;13.13;;
22064;SDS011;11197;53.110;8.468;2024-01-30T00:33:37;18.15;;;12.90;;
22064;SDS011;11197;53.110;8.468;2024-01-30T00:36:07;24.15;;;13.00;;
22064;SDS011;11197;53.110;8.468;2024-01-30T00:38:34;21.27;;;13.43;;
22064;SDS011;11197;53.110;8.468;2024-01-30T00:41:01;19.30;;;13.70;;
22064;SDS011;11197;53.110;8.468;2024-01-30T00:43:27;17.77;;;12.43;;
22064;SDS011;11197;53.110;8.468;2024-01-30T00:45:53;21.33;;;12.50;;
22064;SDS011;11197;53.110;8.468;2024-01-30T00:48:19;17.45;;;12.05;;
22064;SDS011;11197;53.110;8.468;2024-01-30T00:50:45;18.55;;;12.60;;
22064;SDS011;11197;53.110;8.468;2024-01-30T00:53:11;17.95;;;11.73;;
22064;SDS011;11197;53.110;8.468;2024-01-30T00:55:38;17.23;;;12.02;;
22064;SDS011;11197;53.110;8.468;2024-01-30T00:58:04;20.30;;;12.38;;
22064;SDS011;11197;53.110;8.468;2024-01-30T01:00:29;19.70;;;12.50;;
22064;SDS011;11197;53.110;8.468;2024-01-30T01:02:57;18.25;;;12.52;;
22064;SDS011;11197;53.110;8.468;2024-01-30T01:05:23;17.63;;;12.73;;
22064;SDS011;11197;53.110;8.468;2024-01-30T01:07:49;18.58;;;12.98;;
22064;SDS011;11197;53.110;8.468;2024-01-30T01:10:18;21.17;;;13.38;;
22064;SDS011;11197;53.110;8.468;2024-01-30T01:12:44;20.52;;;13.13;;
22064;SDS011;11197;53.110;8.468;2024-01-30T01:15:11;23.67;;;12.65;;
22064;SDS011;11197;53.110;8.468;2024-01-30T01:17:37;18.48;;;12.57;;
22064;SDS011;11197;53.110;8.468;2024-01-30T01:20:04;20.40;;;13.15;;
22064;SDS011;11197;53.110;8.468;2024-01-30T01:22:31;18.17;;;12.77;;
22064;SDS011;11197;53.110;8.468;2024-01-30T01:24:58;21.55;;;12.57;;
22064;SDS011;11197;53.110;8.468;2024-01-30T01:27:25;18.65;;;12.68;;
22064;SDS011;11197;53.110;8.468;2024-01-30T01:29:51;19.85;;;12.50;;
22064;SDS011;11197;53.110;8.468;2024-01-30T01:32:17;20.25;;;12.65;;
22064;SDS011;11197;53.110;8.468;2024-01-30T01:34:43;19.98;;;12.95;;
22064;SDS011;11197;53.110;8.468;2024-01-30T01:37:09;16.75;;;12.30;;
22064;SDS011;11197;53.110;8.468;2024-01-30T01:39:35;19.88;;;13.10;;
22064;SDS011;11197;53.110;8.468;2024-01-30T01:42:01;18.75;;;13.35;;
22064;SDS011;11197;53.110;8.468;2024-01-30T01:44:27;19.23;;;12.90;;
22064;SDS011;11197;53.110;8.468;2024-01-30T01:46:54;17.05;;;11.88;;
22064;SDS011;11197;53.110;8.468;2024-01-30T01:49:21;23.33;;;12.73;;
22064;SDS011;11197;53.110;8.468;2024-01-30T01:51:48;18.65;;;12.68;;
22064;SDS011;11197;53.110;8.468;2024-01-30T01:54:15;18.63;;;12.65;;
22064;SDS011;11197;53.110;8.468;2024-01-30T01:56:42;21.60;;;12.90;;
22064;SDS011;11197;53.110;8.468;2024-01-30T01:59:08;19.63;;;13.02;;
22064;SDS011;11197;53.110;8.468;2024-01-30T02:01:37;18.08;;;12.30;;
22064;SDS011;11197;53.110;8.468;2024-01-30T02:04:04;21.90;;;13.57;;
22064;SDS011;11197;53.110;8.468;2024-01-30T02:06:30;16.65;;;12.70;;
22064;SDS011;11197;53.110;8.468;2024-01-30T02:08:57;17.83;;;12.20;;
22064;SDS011;11197;53.110;8.468;2024-01-30T02:11:23;18.38;;;12.18;;
22064;SDS011;11197;53.110;8.468;2024-01-30T02:13:50;17.88;;;12.77;;
22064;SDS011;11197;53.110;8.468;2024-01-30T02:16:16;18.23;;;13.27;;
22064;SDS011;11197;53.110;8.468;2024-01-30T02:18:45;20.40;;;12.30;;
22064;SDS011;11197;53.110;8.468;2024-01-30T02:21:16;18.45;;;12.52;;
22064;SDS011;11197;53.110;8.468;2024-01-30T02:23:43;18.35;;;13.70;;
22064;SDS011;11197;53.110;8.468;2024-01-30T02:26:11;19.50;;;13.00;;
22064;SDS011;11197;53.110;8.468;2024-01-30T02:28:37;21.08;;;13.35;;
22064;SDS011;11197;53.110;8.468;2024-01-30T02:31:04;19.83;;;13.23;;
22064;SDS011;11197;53.110;8.468;2024-01-30T02:33:30;19.48;;;13.32;;
22064;SDS011;11197;53.110;8.468;2024-01-30T02:35:56;19.15;;;13.73;;
22064;SDS011;11197;53.110;8.468;2024-01-30T02:38:22;18.38;;;13.40;;
22064;SDS011;11197;53.110;8.468;2024-01-30T02:40:52;19.30;;;13.50;;
22064;SDS011;11197;53.110;8.468;2024-01-30T02:43:18;22.60;;;13.55;;
22064;SDS011;11197;53.110;8.468;2024-01-30T02:45:44;17.27;;;12.73;;
22064;SDS011;11197;53.110;8.468;2024-01-30T02:48:10;21.70;;;14.10;;
22064;SDS011;11197;53.110;8.468;2024-01-30T02:50:36;19.02;;;12.88;;
22064;SDS011;11197;53.110;8.468;2024-01-30T02:53:02;22.35;;;13.65;;
22064;SDS011;11197;53.110;8.468;2024-01-30T02:55:28;20.45;;;13.05;;
22064;SDS011;11197;53.110;8.468;2024-01-30T02:57:54;18.98;;;13.10;;
22064;SDS011;11197;53.110;8.468;2024-01-30T03:00:20;19.92;;;13.32;;
22064;SDS011;11197;53.110;8.468;2024-01-30T03:02:46;20.60;;;13.35;;
22064;SDS011;11197;53.110;8.468;2024-01-30T03:05:12;18.77;;;12.98;;
22064;SDS011;11197;53.110;8.468;2024-01-30T03:07:38;18.58;;;12.38;;
22064;SDS011;11197;53.110;8.468;2024-01-30T03:10:04;18.35;;;13.15;;
22064;SDS011;11197;53.110;8.468;2024-01-30T03:12:31;20.38;;;14.07;;
22064;SDS011;11197;53.110;8.468;2024-01-30T03:14:57;21.73;;;13.98;;
22064;SDS011;11197;53.110;8.468;2024-01-30T03:17:23;18.35;;;13.13;;
22064;SDS011;11197;53.110;8.468;2024-01-30T03:19:49;21.02;;;13.40;;
22064;SDS011;11197;53.110;8.468;2024-01-30T03:22:15;19.95;;;13.70;;
22064;SDS011;11197;53.110;8.468;2024-01-30T03:24:42;17.35;;;13.10;;
22064;SDS011;11197;53.110;8.468;2024-01-30T03:27:08;19.27;;;12.98;;
22064;SDS011;11197;53.110;8.468;2024-01-30T03:29:34;18.65;;;13.68;;
22064;SDS011;11197;53.110;8.468;2024-01-30T03:32:00;19.63;;;13.15;;
22064;SDS011;11197;53.110;8.468;2024-01-30T03:34:26;20.48;;;13.85;;
22064;SDS011;11197;53.110;8.468;2024-01-30T03:36:52;19.92;;;13.50;;
22064;SDS011;11197;53.110;8.468;2024-01-30T03:39:18;20.98;;;13.27;;
22064;SDS011;11197;53.110;8.468;2024-01-30T03:41:44;19.45;;;13.45;;
22064;SDS011;11197;53.110;8.468;2024-01-30T03:44:10;18.63;;;13.50;;
22064;SDS011;11197;53.110;8.468;2024-01-30T03:46:36;20.00;;;13.93;;
22064;SDS011;11197;53.110;8.468;2024-01-30T03:49:02;20.63;;;14.38;;
22064;SDS011;11197;53.110;8.468;2024-01-30T03:51:28;23.77;;;14.48;;
22064;SDS011;11197;53.110;8.468;2024-01-30T03:53:54;20.40;;;14.07;;
22064;SDS011;11197;53.110;8.468;2024-01-30T03:56:20;19.92;;;14.10;;
22064;SDS011;11197;53.110;8.468;2024-01-30T03:58:46;18.80;;;14.18;;
22064;SDS011;11197;53.110;8.468;2024-01-30T04:01:15;19.08;;;13.63;;
22064;SDS011;11197;53.110;8.468;2024-01-30T04:03:41;20.75;;;14.48;;
22064;SDS011;11197;53.110;8.468;2024-01-30T04:06:09;18.85;;;13.88;;
22064;SDS011;11197;53.110;8.468;2024-01-30T04:08:35;21.90;;;13.52;;
22064;SDS011;11197;53.110;8.468;2024-01-30T04:11:05;20.65;;;14.18;;
22064;SDS011;11197;53.110;8.468;2024-01-30T04:13:31;20.35;;;13.52;;
22064;SDS011;11197;53.110;8.468;2024-01-30T04:16:00;20.45;;;14.05;;
22064;SDS011;11197;53.110;8.468;2024-01-30T04:18:27;18.58;;;13.48;;
22064;SDS011;11197;53.110;8.468;2024-01-30T04:20:53;19.58;;;13.48;;
22064;SDS011;11197;53.110;8.468;2024-01-30T04:23:19;19.05;;;13.10;;
22064;SDS011;11197;53.110;8.468;2024-01-30T04:25:46;19.58;;;13.52;;
22064;SDS011;11197;53.110;8.468;2024-01-30T04:28:12;20.10;;;13.65;;
22064;SDS011;11197;53.110;8.468;2024-01-30T04:30:38;20.98;;;14.60;;
22064;SDS011;11197;53.110;8.468;2024-01-30T04:33:04;20.77;;;14.05;;
22064;SDS011;11197;53.110;8.468;2024-01-30T04:35:30;19.27;;;13.35;;
22064;SDS011;11197;53.110;8.468;2024-01-30T04:37:56;22.88;;;14.43;;
22064;SDS011;11197;53.110;8.468;2024-01-30T04:40:22;21.55;;;14.10;;
22064;SDS011;11197;53.110;8.468;2024-01-30T04:42:48;18.75;;;13.63;;
22064;SDS011;11197;53.110;8.468;2024-01-30T04:45:14;21.42;;;14.45;;
22064;SDS011;11197;53.110;8.468;2024-01-30T04:47:40;20.50;;;13.45;;
22064;SDS011;11197;53.110;8.468;2024-01-30T04:50:06;18.88;;;12.93;;
22064;SDS011;11197;53.110;8.468;2024-01-30T04:52:34;20.48;;;13.23;;
22064;SDS011;11197;53.110;8.468;2024-01-30T04:55:00;18.70;;;13.57;;
22064;SDS011;11197;53.110;8.468;2024-01-30T04:57:26;22.45;;;14.18;;
22064;SDS011;11197;53.110;8.468;2024-01-30T04:59:52;18.90;;;13.75;;
22064;SDS011;11197;53.110;8.468;2024-01-30T05:02:18;21.20;;;14.38;;
22064;SDS011;11197;53.110;8.468;2024-01-30T05:04:44;19.23;;;13.77;;
22064;SDS011;11197;53.110;8.468;2024-01-30T05:07:10;18.85;;;13.88;;
22064;SDS011;11197;53.110;8.468;2024-01-30T05:09:36;21.67;;;14.30;;
22064;SDS011;11197;53.110;8.468;2024-01-30T05:12:02;20.42;;;13.55;;
22064;SDS011;11197;53.110;8.468;2024-01-30T05:14:28;21.50;;;14.10;;
22064;SDS011;11197;53.110;8.468;2024-01-30T05:16:54;22.27;;;13.40;;
22064;SDS011;11197;53.110;8.468;2024-01-30T05:19:20;17.38;;;13.20;;
22064;SDS011;11197;53.110;8.468;2024-01-30T05:21:48;20.58;;;13.80;;
22064;SDS011;11197;53.110;8.468;2024-01-30T05:24:14;19.73;;;14.07;;
22064;SDS011;11197;53.110;8.468;2024-01-30T05:26:40;18.88;;;14.10;;
22064;SDS011;11197;53.110;8.468;2024-01-30T05:29:07;20.85;;;14.45;;
22064;SDS011;11197;53.110;8.468;2024-01-30T05:31:33;20.25;;;13.82;;
22064;SDS011;11197;53.110;8.468;2024-01-30T05:33:59;20.90;;;14.00;;
22064;SDS011;11197;53.110;8.468;2024-01-30T05:36:25;20.33;;;13.65;;
22064;SDS011;11197;53.110;8.468;2024-01-30T05:38:51;20.05;;;13.75;;
22064;SDS011;11197;53.110;8.468;2024-01-30T05:41:17;19.38;;;13.73;;
22064;SDS011;11197;53.110;8.468;2024-01-30T05:43:43;18.83;;;13.48;;
22064;SDS011;11197;53.110;8.468;2024-01-30T05:46:09;21.65;;;14.40;;
22064;SDS011;11197;53.110;8.468;2024-01-30T05:48:35;22.83;;;14.52;;
22064;SDS011;11197;53.110;8.468;2024-01-30T05:51:02;20.58;;;14.18;;
22064;SDS011;11197;53.110;8.468;2024-01-30T05:53:29;19.40;;;14.27;;
22064;SDS011;11197;53.110;8.468;2024-01-30T05:55:55;19.80;;;14.00;;
22064;SDS011;11197;53.110;8.468;2024-01-30T05:58:21;20.30;;;14.40;;
22064;SDS011;11197;53.110;8.468;2024-01-30T06:00:47;21.83;;;14.65;;
22064;SDS011;11197;53.110;8.468;2024-01-30T06:03:13;24.50;;;15.18;;
22064;SDS011;11197;53.110;8.468;2024-01-30T06:05:39;19.63;;;13.75;;
22064;SDS011;11197;53.110;8.468;2024-01-30T06:08:05;21.15;;;13.98;;
22064;SDS011;11197;53.110;8.468;2024-01-30T06:10:31;19.17;;;14.00;;
22064;SDS011;11197;53.110;8.468;2024-01-30T06:12:56;19.65;;;13.80;;
22064;SDS011;11197;53.110;8.468;2024-01-30T06:15:22;22.50;;;14.30;;
22064;SDS011;11197;53.110;8.468;2024-01-30T06:17:48;22.27;;;14.40;;
22064;SDS011;11197;53.110;8.468;2024-01-30T06:20:14;20.77;;;14.57;;
22064;SDS011;11197;53.110;8.468;2024-01-30T06:22:39;21.65;;;14.18;;
22064;SDS011;11197;53.110;8.468;2024-01-30T06:25:05;22.48;;;14.27;;
22064;SDS011;11197;53.110;8.468;2024-01-30T06:27:31;20.35;;;13.95;;
22064;SDS011;11197;53.110;8.468;2024-01-30T06:29:57;19.55;;;14.40;;
22064;SDS011;11197;53.110;8.468;2024-01-30T06:32:23;21.25;;;14.45;;
22064;SDS011;11197;53.110;8.468;2024-01-30T06:34:49;19.63;;;14.18;;
22064;SDS011;11197;53.110;8.468;2024-01-30T06:37:15;20.25;;;13.70;;
22064;SDS011;11197;53.110;8.468;2024-01-30T06:39:42;20.15;;;14.60;;
22064;SDS011;11197;53.110;8.468;2024-01-30T06:42:09;19.88;;;13.98;;
22064;SDS011;11197;53.110;8.468;2024-01-30T06:44:35;18.10;;;13.35;;
22064;SDS011;11197;53.110;8.468;2024-01-30T06:47:00;22.90;;;14.27;;
22064;SDS011;11197;53.110;8.468;2024-01-30T06:49:26;20.25;;;14.90;;
22064;SDS011;11197;53.110;8.468;2024-01-30T06:51:52;21.52;;;14.60;;
22064;SDS011;11197;53.110;8.468;2024-01-30T06:54:18;22.65;;;14.15;;
22064;SDS011;11197;53.110;8.468;2024-01-30T06:56:44;23.05;;;14.60;;
22064;SDS011;11197;53.110;8.468;2024-01-30T06:59:10;20.33;;;14.35;;
22064;SDS011;11197;53.110;8.468;2024-01-30T07:01:35;24.45;;;14.05;;
22064;SDS011;11197;53.110;8.468;2024-01-30T07:04:01;21.63;;;14.35;;
22064;SDS011;11197;53.110;8.468;2024-01-30T07:06:27;20.27;;;13.95;;
22064;SDS011;11197;53.110;8.468;2024-01-30T07:08:53;21.40;;;14.23;;
22064;SDS011;11197;53.110;8.468;2024-01-30T07:11:19;21.02;;;14.02;;
22064;SDS011;11197;53.110;8.468;2024-01-30T07:13:52;20.92;;;14.57;;
22064;SDS011;11197;53.110;8.468;2024-01-30T07:16:18;17.77;;;13.05;;
22064;SDS011;11197;53.110;8.468;2024-01-30T07:18:44;19.90;;;13.48;;
22064;SDS011;11197;53.110;8.468;2024-01-30T07:21:10;21.50;;;14.27;;
22064;SDS011;11197;53.110;8.468;2024-01-30T07:23:36;21.45;;;14.07;;
22064;SDS011;11197;53.110;8.468;2024-01-30T07:26:06;20.33;;;14.13;;
22064;SDS011;11197;53.110;8.468;2024-01-30T07:28:33;20.77;;;14.23;;
22064;SDS011;11197;53.110;8.468;2024-01-30T07:31:00;19.00;;;13.95;;
22064;SDS011;11197;53.110;8.468;2024-01-30T07:33:27;19.85;;;13.63;;
22064;SDS011;11197;53.110;8.468;2024-01-30T07:35:53;18.92;;;13.65;;
22064;SDS011;11197;53.110;8.468;2024-01-30T07:38:19;19.75;;;13.50;;
22064;SDS011;11197;53.110;8.468;2024-01-30T07:40:45;21.27;;;13.88;;
22064;SDS011;11197;53.110;8.468;2024-01-30T07:43:11;21.88;;;14.23;;
22064;SDS011;11197;53.110;8.468;2024-01-30T07:45:37;19.17;;;13.25;;
22064;SDS011;11197;53.110;8.468;2024-01-30T07:48:07;20.85;;;14.23;;
22064;SDS011;11197;53.110;8.468;2024-01-30T07:50:33;20.00;;;13.57;;
22064;SDS011;11197;53.110;8.468;2024-01-30T07:52:59;18.92;;;13.40;;
22064;SDS011;11197;53.110;8.468;2024-01-30T07:55:25;18.85;;;13.45;;
22064;SDS011;11197;53.110;8.468;2024-01-30T07:57:56;19.52;;;13.20;;
22064;SDS011;11197;53.110;8.468;2024-01-30T08:00:22;20.80;;;13.32;;
22064;SDS011;11197;53.110;8.468;2024-01-30T08:02:48;20.15;;;12.68;;
22064;SDS011;11197;53.110;8.468;2024-01-30T08:05:14;19.42;;;13.23;;
22064;SDS011;11197;53.110;8.468;2024-01-30T08:07:43;20.85;;;13.27;;
22064;SDS011;11197;53.110;8.468;2024-01-30T08:10:11;20.70;;;12.98;;
22064;SDS011;11197;53.110;8.468;2024-01-30T08:12:37;20.33;;;12.93;;
22064;SDS011;11197;53.110;8.468;2024-01-30T08:15:04;20.10;;;12.73;;
22064;SDS011;11197;53.110;8.468;2024-01-30T08:17:30;19.17;;;13.02;;
22064;SDS011;11197;53.110;8.468;2024-01-30T08:19:56;18.77;;;12.98;;
22064;SDS011;11197;53.110;8.468;2024-01-30T08:22:22;22.45;;;12.82;;
22064;SDS011;11197;53.110;8.468;2024-01-30T08:24:48;21.13;;;13.18;;
22064;SDS011;11197;53.110;8.468;2024-01-30T08:27:14;19.73;;;12.95;;
22064;SDS011;11197;53.110;8.468;2024-01-30T08:29:39;19.73;;;12.98;;
22064;SDS011;11197;53.110;8.468;2024-01-30T08:32:06;20.35;;;13.65;;
22064;SDS011;11197;53.110;8.468;2024-01-30T08:34:32;17.83;;;12.50;;
22064;SDS011;11197;53.110;8.468;2024-01-30T08:36:58;19.83;;;13.35;;
22064;SDS011;11197;53.110;8.468;2024-01-30T08:39:24;20.17;;;13.18;;
22064;SDS011;11197;53.110;8.468;2024-01-30T08:41:49;18.92;;;12.75;;
22064;SDS011;11197;53.110;8.468;2024-01-30T08:44:15;17.58;;;12.88;;
22064;SDS011;11197;53.110;8.468;2024-01-30T08:46:42;20.52;;;13.30;;
22064;SDS011;11197;53.110;8.468;2024-01-30T08:49:11;22.75;;;13.30;;
22064;SDS011;11197;53.110;8.468;2024-01-30T08:51:41;18.38;;;13.07;;
22064;SDS011;11197;53.110;8.468;2024-01-30T08:54:07;19.65;;;12.90;;
22064;SDS011;11197;53.110;8.468;2024-01-30T08:56:33;19.63;;;13.15;;
22064;SDS011;11197;53.110;8.468;2024-01-30T08:58:59;17.90;;;12.90;;
22064;SDS011;11197;53.110;8.468;2024-01-30T09:01:25;19.63;;;12.80;;
22064;SDS011;11197;53.110;8.468;2024-01-30T09:03:51;17.17;;;12.88;;
22064;SDS011;11197;53.110;8.468;2024-01-30T09:06:17;19.00;;;12.90;;
22064;SDS011;11197;53.110;8.468;2024-01-30T09:08:43;17.65;;;12.30;;
22064;SDS011;11197;53.110;8.468;2024-01-30T09:11:09;18.98;;;13.05;;
22064;SDS011;11197;53.110;8.468;2024-01-30T09:13:37;18.27;;;11.93;;
22064;SDS011;11197;53.110;8.468;2024-01-30T09:16:03;18.05;;;12.00;;
22064;SDS011;11197;53.110;8.468;2024-01-30T09:18:29;18.88;;;12.45;;
22064;SDS011;11197;53.110;8.468;2024-01-30T09:20:55;20.50;;;12.15;;
22064;SDS011;11197;53.110;8.468;2024-01-30T09:23:21;18.90;;;12.30;;
22064;SDS011;11197;53.110;8.468;2024-01-30T09:25:47;18.27;;;12.18;;
22064;SDS011;11197;53.110;8.468;2024-01-30T09:28:14;18.23;;;12.13;;
22064;SDS011;11197;53.110;8.468;2024-01-30T09:30:39;15.85;;;12.10;;
22064;SDS011;11197;53.110;8.468;2024-01-30T09:33:06;18.77;;;12.38;;
22064;SDS011;11197;53.110;8.468;2024-01-30T09:35:32;19.17;;;12.82;;
22064;SDS011;11197;53.110;8.468;2024-01-30T09:37:59;19.40;;;12.48;;
22064;SDS011;11197;53.110;8.468;2024-01-30T09:40:25;18.02;;;12.25;;
22064;SDS011;11197;53.110;8.468;2024-01-30T09:42:51;17.48;;;12.27;;
22064;SDS011;11197;53.110;8.468;2024-01-30T09:45:17;19.70;;;12.07;;
22064;SDS011;11197;53.110;8.468;2024-01-30T09:47:44;19.88;;;12.60;;
22064;SDS011;11197;53.110;8.468;2024-01-30T09:50:12;19.17;;;12.40;;
22064;SDS011;11197;53.110;8.468;2024-01-30T09:52:40;19.27;;;12.45;;
22064;SDS011;11197;53.110;8.468;2024-01-30T09:55:06;21.88;;;13.02;;
22064;SDS011;11197;53.110;8.468;2024-01-30T09:57:33;17.80;;;12.20;;
22064;SDS011;11197;53.110;8.468;2024-01-30T09:59:59;17.70;;;12.13;;
22064;SDS011;11197;53.110;8.468;2024-01-30T10:02:25;20.85;;;12.30;;
22064;SDS011;11197;53.110;8.468;2024-01-30T10:04:51;16.85;;;11.50;;
22064;SDS011;11197;53.110;8.468;2024-01-30T10:07:18;16.73;;;11.88;;
22064;SDS011;11197;53.110;8.468;2024-01-30T10:09:44;18.27;;;11.40;;
22064;SDS011;11197;53.110;8.468;2024-01-30T10:12:11;16.50;;;12.18;;
22064;SDS011;11197;53.110;8.468;2024-01-30T10:14:38;20.02;;;11.88;;
22064;SDS011;11197;53.110;8.468;2024-01-30T10:17:04;17.35;;;10.95;;
22064;SDS011;11197;53.110;8.468;2024-01-30T10:19:31;20.30;;;11.98;;
22064;SDS011;11197;53.110;8.468;2024-01-30T10:21:59;18.77;;;11.25;;
22064;SDS011;11197;53.110;8.468;2024-01-30T10:24:25;20.15;;;11.68;;
22064;SDS011;11197;53.110;8.468;2024-01-30T10:26:53;16.30;;;11.05;;
22064;SDS011;11197;53.110;8.468;2024-01-30T10:29:19;15.15;;;11.20;;
22064;SDS011;11197;53.110;8.468;2024-01-30T10:31:44;16.48;;;11.15;;
22064;SDS011;11197;53.110;8.468;2024-01-30T10:34:10;16.20;;;11.05;;
22064;SDS011;11197;53.110;8.468;2024-01-30T10:36:39;16.10;;;11.13;;
22064;SDS011;11197;53.110;8.468;2024-01-30T10:39:07;17.63;;;10.95;;
22064;SDS011;11197;53.110;8.468;2024-01-30T10:41:36;14.77;;;10.55;;
22064;SDS011;11197;53.110;8.468;2024-01-30T10:44:14;18.45;;;10.63;;
22064;SDS011;11197;53.110;8.468;2024-01-30T10:46:45;16.02;;;10.52;;
22064;SDS011;11197;53.110;8.468;2024-01-30T10:49:19;16.02;;;10.50;;
22064;SDS011;11197;53.110;8.468;2024-01-30T10:51:46;18.00;;;10.88;;
22064;SDS011;11197;53.110;8.468;2024-01-30T10:54:14;18.30;;;11.15;;
22064;SDS011;11197;53.110;8.468;2024-01-30T10:56:42;18.90;;;10.77;;
22064;SDS011;11197;53.110;8.468;2024-01-30T10:59:09;17.73;;;10.73;;
22064;SDS011;11197;53.110;8.468;2024-01-30T11:01:35;17.10;;;10.82;;
22064;SDS011;11197;53.110;8.468;2024-01-30T11:04:01;13.25;;;10.02;;
22064;SDS011;11197;53.110;8.468;2024-01-30T11:06:27;17.23;;;11.15;;
22064;SDS011;11197;53.110;8.468;2024-01-30T11:09:02;15.98;;;10.32;;
22064;SDS011;11197;53.110;8.468;2024-01-30T11:11:47;15.10;;;10.85;;
22064;SDS011;11197;53.110;8.468;2024-01-30T11:14:22;14.80;;;10.25;;
22064;SDS011;11197;53.110;8.468;2024-01-30T11:16:50;20.88;;;10.88;;
22064;SDS011;11197;53.110;8.468;2024-01-30T11:19:21;18.08;;;10.57;;
22064;SDS011;11197;53.110;8.468;2024-01-30T11:21:50;20.80;;;10.40;;
22064;SDS011;11197;53.110;8.468;2024-01-30T11:24:19;16.70;;;11.23;;
22064;SDS011;11197;53.110;8.468;2024-01-30T11:26:47;15.27;;;9.80;;
22064;SDS011;11197;53.110;8.468;2024-01-30T11:29:27;18.27;;;10.00;;
22064;SDS011;11197;53.110;8.468;2024-01-30T11:31:57;17.30;;;9.90;;
22064;SDS011;11197;53.110;8.468;2024-01-30T11:34:23;20.90;;;11.10;;
22064;SDS011;11197;53.110;8.468;2024-01-30T11:36:53;16.02;;;10.23;;
22064;SDS011;11197;53.110;8.468;2024-01-30T11:39:24;16.38;;;10.18;;
22064;SDS011;11197;53.110;8.468;2024-01-30T11:41:54;16.42;;;10.35;;
22064;SDS011;11197;53.110;8.468;2024-01-30T11:44:21;17.15;;;10.10;;
22064;SDS011;11197;53.110;8.468;2024-01-30T11:46:51;15.38;;;9.80;;
22064;SDS011;11197;53.110;8.468;2024-01-30T11:49:17;17.52;;;10.10;;
22064;SDS011;11197;53.110;8.468;2024-01-30T11:51:46;15.73;;;9.98;;
22064;SDS011;11197;53.110;8.468;2024-01-30T11:54:15;15.40;;;9.32;;
22064;SDS011;11197;53.110;8.468;2024-01-30T11:56:42;15.85;;;9.43;;
22064;SDS011;11197;53.110;8.468;2024-01-30T11:59:08;16.70;;;9.88;;
22064;SDS011;11197;53.110;8.468;2024-01-30T12:01:35;15.52;;;9.93;;
22064;SDS011;11197;53.110;8.468;2024-01-30T12:04:01;17.73;;;10.40;;
22064;SDS011;11197;53.110;8.468;2024-01-30T12:06:28;17.10;;;9.80;;
22064;SDS011;11197;53.110;8.468;2024-01-30T12:08:58;20.95;;;10.73;;
22064;SDS011;11197;53.110;8.468;2024-01-30T12:11:26;22.02;;;10.70;;
22064;SDS011;11197;53.110;8.468;2024-01-30T12:13:52;15.05;;;9.80;;
22064;SDS011;11197;53.110;8.468;2024-01-30T12:16:19;15.75;;;10.13;;
22064;SDS011;11197;53.110;8.468;2024-01-30T12:18:45;15.15;;;10.15;;
22064;SDS011;11197;53.110;8.468;2024-01-30T12:21:11;19.63;;;10.77;;
22064;SDS011;11197;53.110;8.468;2024-01-30T12:23:37;20.02;;;10.68;;
22064;SDS011;11197;53.110;8.468;2024-01-30T12:26:03;17.25;;;10.45;;
22064;SDS011;11197;53.110;8.468;2024-01-30T12:28:32;18.92;;;10.18;;
22064;SDS011;11197;53.110;8.468;2024-01-30T12:31:02;16.77;;;10.10;;
22064;SDS011;11197;53.110;8.468;2024-01-30T12:33:31;17.13;;;10.13;;
22064;SDS011;11197;53.110;8.468;2024-01-30T12:36:01;20.05;;;9.73;;
22064;SDS011;11197;53.110;8.468;2024-01-30T12:38:27;16.98;;;10.07;;
22064;SDS011;11197;53.110;8.468;2024-01-30T12:40:56;16.60;;;10.32;;
22064;SDS011;11197;53.110;8.468;2024-01-30T12:43:24;18.80;;;10.60;;
22064;SDS011;11197;53.110;8.468;2024-01-30T12:46:00;18.58;;;10.10;;
22064;SDS011;11197;53.110;8.468;2024-01-30T12:48:26;18.33;;;10.18;;
22064;SDS011;11197;53.110;8.468;2024-01-30T12:50:54;16.15;;;10.20;;
22064;SDS011;11197;53.110;8.468;2024-01-30T12:53:21;18.08;;;10.68;;
22064;SDS011;11197;53.110;8.468;2024-01-30T12:55:47;15.57;;;10.98;;
22064;SDS011;11197;53.110;8.468;2024-01-30T12:58:14;17.08;;;10.10;;
22064;SDS011;11197;53.110;8.468;2024-01-30T13:00:40;18.90;;;10.10;;
22064;SDS011;11197;53.110;8.468;2024-01-30T13:03:08;18.05;;;10.80;;
22064;SDS011;11197;53.110;8.468;2024-01-30T13:05:35;17.20;;;9.98;;
22064;SDS011;11197;53.110;8.468;2024-01-30T13:08:01;17.75;;;10.65;;
22064;SDS011;11197;53.110;8.468;2024-01-30T13:10:26;18.77;;;11.57;;
22064;SDS011;11197;53.110;8.468;2024-01-30T13:12:52;19.10;;;10.90;;
22064;SDS011;11197;53.110;8.468;2024-01-30T13:15:18;19.73;;;11.57;;
22064;SDS011;11197;53.110;8.468;2024-01-30T13:17:44;21.80;;;13.55;;
22064;SDS011;11197;53.110;8.468;2024-01-30T13:20:12;24.25;;;14.38;;
22064;SDS011;11197;53.110;8.468;2024-01-30T13:22:43;23.63;;;12.02;;
22064;SDS011;11197;53.110;8.468;2024-01-30T13:25:08;21.38;;;12.02;;
22064;SDS011;11197;53.110;8.468;2024-01-30T13:27:34;19.70;;;11.70;;
22064;SDS011;11197;53.110;8.468;2024-01-30T13:30:01;16.48;;;11.50;;
22064;SDS011;11197;53.110;8.468;2024-01-30T13:32:27;21.58;;;11.98;;
22064;SDS011;11197;53.110;8.468;2024-01-30T13:34:59;16.83;;;10.90;;
22064;SDS011;11197;53.110;8.468;2024-01-30T13:37:26;20.20;;;10.80;;
22064;SDS011;11197;53.110;8.468;2024-01-30T13:39:52;21.52;;;11.13;;
22064;SDS011;11197;53.110;8.468;2024-01-30T13:42:18;17.40;;;10.93;;
22064;SDS011;11197;53.110;8.468;2024-01-30T13:44:44;18.92;;;10.60;;
22064;SDS011;11197;53.110;8.468;2024-01-30T13:47:10;16.88;;;10.48;;
22064;SDS011;11197;53.110;8.468;2024-01-30T13:49:36;16.08;;;11.13;;
22064;SDS011;11197;53.110;8.468;2024-01-30T13:52:02;17.27;;;10.30;;
22064;SDS011;11197;53.110;8.468;2024-01-30T13:54:28;18.60;;;10.27;;
22064;SDS011;11197;53.110;8.468;2024-01-30T13:56:55;18.08;;;10.73;;
22064;SDS011;11197;53.110;8.468;2024-01-30T13:59:22;21.00;;;10.85;;
22064;SDS011;11197;53.110;8.468;2024-01-30T14:01:50;18.13;;;10.60;;
22064;SDS011;11197;53.110;8.468;2024-01-30T14:04:16;18.13;;;11.02;;
22064;SDS011;11197;53.110;8.468;2024-01-30T14:06:42;15.60;;;10.10;;
22064;SDS011;11197;53.110;8.468;2024-01-30T14:09:08;16.40;;;10.02;;
22064;SDS011;11197;53.110;8.468;2024-01-30T14:11:35;15.27;;;10.10;;
22064;SDS011;11197;53.110;8.468;2024-01-30T14:14:01;21.83;;;9.77;;
22064;SDS011;11197;53.110;8.468;2024-01-30T14:16:27;16.15;;;9.57;;
22064;SDS011;11197;53.110;8.468;2024-01-30T14:18:54;15.95;;;9.77;;